sensor_id;sensor_type;location;lat;lon;timestamp;pressure;altitude;pressure_sealevel;temperature;humidity
60920;BME280;59039;52.108;19.942;2023-02-17T00:00:13;100977.70;;;4.67;82.71
60920;BME280;59039;52.108;19.942;2023-02-17T00:02:58;100975.09;;;4.69;82.25
60920;BME280;59039;52.108;19.942;2023-02-17T00:08:20;100970.27;;;4.71;81.26
60920;BME280;59039;52.108;19.942;2023-02-17T00:11:17;100978.57;;;4.73;81.81
60920;BME280;59039;52.108;19.942;2023-02-17T00:14:11;100976.70;;;4.74;81.21
60920;BME280;59039;52.108;19.942;2023-02-17T00:19:19;100972.98;;;4.78;81.78
60920;BME280;59039;52.108;19.942;2023-02-17T00:22:07;100971.23;;;4.80;81.85
60920;BME280;59039;52.108;19.942;2023-02-17T00:24:38;100967.94;;;4.82;81.85
60920;BME280;59039;52.108;19.942;2023-02-17T00:27:09;100968.23;;;4.83;82.11
60920;BME280;59039;52.108;19.942;2023-02-17T00:29:55;100965.54;;;4.83;81.71
60920;BME280;59039;52.108;19.942;2023-02-17T00:32:21;100962.48;;;4.83;81.61
60920;BME280;59039;52.108;19.942;2023-02-17T00:34:46;100965.51;;;4.83;81.43
60920;BME280;59039;52.108;19.942;2023-02-17T00:37:34;100963.67;;;4.84;81.53
60920;BME280;59039;52.108;19.942;2023-02-17T00:42:41;100953.63;;;4.83;81.05
60920;BME280;59039;52.108;19.942;2023-02-17T00:45:07;100950.70;;;4.84;81.56
60920;BME280;59039;52.108;19.942;2023-02-17T00:47:38;100951.25;;;4.84;81.22
60920;BME280;59039;52.108;19.942;2023-02-17T00:52:44;100943.17;;;4.84;81.04
60920;BME280;59039;52.108;19.942;2023-02-17T00:55:34;100938.54;;;4.84;81.12
60920;BME280;59039;52.108;19.942;2023-02-17T00:58:04;100936.80;;;4.83;80.62
60920;BME280;59039;52.108;19.942;2023-02-17T01:01:11;100937.50;;;4.83;80.80
60920;BME280;59039;52.108;19.942;2023-02-17T01:09:10;100935.95;;;4.82;80.55
60920;BME280;59039;52.108;19.942;2023-02-17T01:11:44;100932.27;;;4.81;80.56
60920;BME280;59039;52.108;19.942;2023-02-17T01:14:23;100932.46;;;4.80;80.91
60920;BME280;59039;52.108;19.942;2023-02-17T01:16:51;100939.75;;;4.81;81.40
60920;BME280;59039;52.108;19.942;2023-02-17T01:19:22;100935.77;;;4.82;81.36
60920;BME280;59039;52.108;19.942;2023-02-17T01:21:53;100933.80;;;4.82;80.89
60920;BME280;59039;52.108;19.942;2023-02-17T01:24:28;100930.94;;;4.82;81.22
60920;BME280;59039;52.108;19.942;2023-02-17T01:26:57;100928.52;;;4.83;81.42
60920;BME280;59039;52.108;19.942;2023-02-17T01:32:03;100930.29;;;4.83;80.82
60920;BME280;59039;52.108;19.942;2023-02-17T01:34:59;100926.65;;;4.84;81.73
60920;BME280;59039;52.108;19.942;2023-02-17T01:37:37;100924.27;;;4.85;81.11
60920;BME280;59039;52.108;19.942;2023-02-17T01:40:03;100924.73;;;4.86;81.23
60920;BME280;59039;52.108;19.942;2023-02-17T01:42:49;100927.16;;;4.87;81.25
60920;BME280;59039;52.108;19.942;2023-02-17T01:45:33;100928.08;;;4.89;81.49
60920;BME280;59039;52.108;19.942;2023-02-17T01:48:04;100922.81;;;4.91;81.17
60920;BME280;59039;52.108;19.942;2023-02-17T01:50:50;100916.27;;;4.92;81.37
60920;BME280;59039;52.108;19.942;2023-02-17T01:53:21;100912.45;;;4.92;81.34
60920;BME280;59039;52.108;19.942;2023-02-17T01:55:54;100914.90;;;4.93;81.16
60920;BME280;59039;52.108;19.942;2023-02-17T01:58:44;100911.39;;;4.94;81.05
60920;BME280;59039;52.108;19.942;2023-02-17T02:01:14;100907.77;;;4.95;81.05
60920;BME280;59039;52.108;19.942;2023-02-17T02:03:45;100906.40;;;4.96;81.64
60920;BME280;59039;52.108;19.942;2023-02-17T02:09:07;100901.52;;;4.97;81.44
60920;BME280;59039;52.108;19.942;2023-02-17T02:11:56;100897.58;;;4.97;82.18
60920;BME280;59039;52.108;19.942;2023-02-17T02:14:28;100896.80;;;4.97;82.17
60920;BME280;59039;52.108;19.942;2023-02-17T02:17:05;100894.61;;;4.98;82.41
60920;BME280;59039;52.108;19.942;2023-02-17T02:29:41;100873.29;;;4.97;82.89
60920;BME280;59039;52.108;19.942;2023-02-17T02:35:43;100869.02;;;4.97;83.02
60920;BME280;59039;52.108;19.942;2023-02-17T02:40:47;100861.41;;;4.98;83.07
60920;BME280;59039;52.108;19.942;2023-02-17T02:43:20;100852.67;;;4.97;83.02
60920;BME280;59039;52.108;19.942;2023-02-17T02:48:24;100851.30;;;4.99;83.27
60920;BME280;59039;52.108;19.942;2023-02-17T02:51:15;100849.38;;;5.00;83.37
60920;BME280;59039;52.108;19.942;2023-02-17T02:54:07;100849.69;;;5.01;83.44
60920;BME280;59039;52.108;19.942;2023-02-17T03:02:40;100846.55;;;5.05;83.45
60920;BME280;59039;52.108;19.942;2023-02-17T03:05:37;100846.84;;;5.06;83.50
60920;BME280;59039;52.108;19.942;2023-02-17T03:08:27;100839.97;;;5.07;83.59
60920;BME280;59039;52.108;19.942;2023-02-17T03:13:58;100840.55;;;5.09;83.72
60920;BME280;59039;52.108;19.942;2023-02-17T03:16:34;100844.64;;;5.09;83.67
60920;BME280;59039;52.108;19.942;2023-02-17T03:19:00;100843.13;;;5.10;83.75
60920;BME280;59039;52.108;19.942;2023-02-17T03:21:56;100842.35;;;5.11;83.91
60920;BME280;59039;52.108;19.942;2023-02-17T03:24:28;100842.84;;;5.12;83.69
60920;BME280;59039;52.108;19.942;2023-02-17T03:26:56;100844.05;;;5.12;83.77
60920;BME280;59039;52.108;19.942;2023-02-17T03:29:36;100849.56;;;5.13;83.98
60920;BME280;59039;52.108;19.942;2023-02-17T03:34:55;100847.21;;;5.13;84.04
60920;BME280;59039;52.108;19.942;2023-02-17T03:40:16;100847.95;;;5.13;84.16
60920;BME280;59039;52.108;19.942;2023-02-17T03:45:23;100847.06;;;5.13;84.22
60920;BME280;59039;52.108;19.942;2023-02-17T03:47:48;100851.23;;;5.12;84.06
60920;BME280;59039;52.108;19.942;2023-02-17T03:50:21;100847.43;;;5.13;84.30
60920;BME280;59039;52.108;19.942;2023-02-17T03:52:50;100846.27;;;5.11;84.22
60920;BME280;59039;52.108;19.942;2023-02-17T03:55:20;100838.42;;;5.11;84.19
60920;BME280;59039;52.108;19.942;2023-02-17T03:57:45;100847.98;;;5.10;84.39
60920;BME280;59039;52.108;19.942;2023-02-17T04:00:11;100846.26;;;5.09;84.48
60920;BME280;59039;52.108;19.942;2023-02-17T04:02:39;100846.52;;;5.08;84.19
60920;BME280;59039;52.108;19.942;2023-02-17T04:05:13;100836.17;;;5.07;84.23
60920;BME280;59039;52.108;19.942;2023-02-17T04:07:55;100831.02;;;5.06;84.27
60920;BME280;59039;52.108;19.942;2023-02-17T04:10:25;100830.49;;;5.06;84.15
60920;BME280;59039;52.108;19.942;2023-02-17T04:12:50;100833.94;;;5.06;84.25
60920;BME280;59039;52.108;19.942;2023-02-17T04:15:15;100834.15;;;5.05;84.52
60920;BME280;59039;52.108;19.942;2023-02-17T04:17:46;100825.77;;;5.04;84.39
60920;BME280;59039;52.108;19.942;2023-02-17T04:20:33;100822.53;;;5.04;84.19
60920;BME280;59039;52.108;19.942;2023-02-17T04:23:00;100820.05;;;5.03;84.07
60920;BME280;59039;52.108;19.942;2023-02-17T04:25:26;100810.33;;;5.04;84.27
60920;BME280;59039;52.108;19.942;2023-02-17T04:28:15;100808.21;;;5.03;84.22
60920;BME280;59039;52.108;19.942;2023-02-17T04:30:45;100803.39;;;5.03;83.98
60920;BME280;59039;52.108;19.942;2023-02-17T04:33:23;100797.32;;;5.02;84.20
60920;BME280;59039;52.108;19.942;2023-02-17T04:35:54;100794.29;;;5.02;84.00
60920;BME280;59039;52.108;19.942;2023-02-17T04:38:19;100794.69;;;5.01;84.08
60920;BME280;59039;52.108;19.942;2023-02-17T04:41:05;100797.96;;;5.01;84.11
60920;BME280;59039;52.108;19.942;2023-02-17T04:43:33;100790.38;;;4.99;84.09
60920;BME280;59039;52.108;19.942;2023-02-17T04:46:01;100786.16;;;4.98;84.28
60920;BME280;59039;52.108;19.942;2023-02-17T04:48:34;100784.08;;;4.97;84.16
60920;BME280;59039;52.108;19.942;2023-02-17T04:51:22;100780.47;;;4.97;84.20
60920;BME280;59039;52.108;19.942;2023-02-17T04:53:47;100782.45;;;4.97;83.98
60920;BME280;59039;52.108;19.942;2023-02-17T04:56:15;100784.96;;;4.97;84.18
60920;BME280;59039;52.108;19.942;2023-02-17T04:58:40;100777.98;;;4.97;83.99
60920;BME280;59039;52.108;19.942;2023-02-17T05:01:09;100771.84;;;4.97;84.08
60920;BME280;59039;52.108;19.942;2023-02-17T05:03:37;100762.85;;;4.97;83.99
60920;BME280;59039;52.108;19.942;2023-02-17T05:06:14;100761.41;;;4.97;83.80
60920;BME280;59039;52.108;19.942;2023-02-17T05:11:26;100758.44;;;4.96;83.66
60920;BME280;59039;52.108;19.942;2023-02-17T05:13:57;100758.95;;;4.96;83.93
60920;BME280;59039;52.108;19.942;2023-02-17T05:16:33;100759.70;;;4.96;83.79
60920;BME280;59039;52.108;19.942;2023-02-17T05:19:21;100765.35;;;4.95;83.64
60920;BME280;59039;52.108;19.942;2023-02-17T05:21:54;100766.83;;;4.94;83.70
60920;BME280;59039;52.108;19.942;2023-02-17T05:27:15;100764.91;;;4.93;83.70
60920;BME280;59039;52.108;19.942;2023-02-17T05:30:00;100761.74;;;4.93;83.69
60920;BME280;59039;52.108;19.942;2023-02-17T05:32:39;100758.73;;;4.92;83.59
60920;BME280;59039;52.108;19.942;2023-02-17T05:38:04;100754.55;;;4.91;83.56
60920;BME280;59039;52.108;19.942;2023-02-17T05:40:32;100757.27;;;4.90;83.32
60920;BME280;59039;52.108;19.942;2023-02-17T05:42:57;100757.08;;;4.90;83.59
60920;BME280;59039;52.108;19.942;2023-02-17T05:45:25;100756.94;;;4.89;83.82
60920;BME280;59039;52.108;19.942;2023-02-17T05:48:01;100754.02;;;4.88;83.62
60920;BME280;59039;52.108;19.942;2023-02-17T05:50:26;100748.51;;;4.87;83.51
60920;BME280;59039;52.108;19.942;2023-02-17T05:53:04;100743.46;;;4.87;83.30
60920;BME280;59039;52.108;19.942;2023-02-17T05:55:32;100736.07;;;4.88;83.04
60920;BME280;59039;52.108;19.942;2023-02-17T05:58:18;100739.80;;;4.88;83.08
60920;BME280;59039;52.108;19.942;2023-02-17T06:00:54;100739.63;;;4.88;83.35
60920;BME280;59039;52.108;19.942;2023-02-17T06:03:19;100739.85;;;4.88;83.64
60920;BME280;59039;52.108;19.942;2023-02-17T06:05:49;100738.89;;;4.88;83.39
60920;BME280;59039;52.108;19.942;2023-02-17T06:08:17;100733.29;;;4.89;83.78
60920;BME280;59039;52.108;19.942;2023-02-17T06:10:42;100725.75;;;4.89;83.21
60920;BME280;59039;52.108;19.942;2023-02-17T06:13:18;100730.19;;;4.90;83.57
60920;BME280;59039;52.108;19.942;2023-02-17T06:16:02;100734.49;;;4.90;83.31
60920;BME280;59039;52.108;19.942;2023-02-17T06:18:31;100739.86;;;4.90;83.69
60920;BME280;59039;52.108;19.942;2023-02-17T06:21:38;100740.29;;;4.89;83.36
60920;BME280;59039;52.108;19.942;2023-02-17T06:24:02;100740.48;;;4.89;83.42
60920;BME280;59039;52.108;19.942;2023-02-17T06:26:48;100734.43;;;4.88;83.41
60920;BME280;59039;52.108;19.942;2023-02-17T06:29:23;100727.58;;;4.88;83.39
60920;BME280;59039;52.108;19.942;2023-02-17T06:32:09;100726.95;;;4.90;83.16
60920;BME280;59039;52.108;19.942;2023-02-17T06:34:36;100728.66;;;4.91;83.17
60920;BME280;59039;52.108;19.942;2023-02-17T06:37:15;100729.64;;;4.92;83.02
60920;BME280;59039;52.108;19.942;2023-02-17T06:39:45;100729.71;;;4.94;83.14
60920;BME280;59039;52.108;19.942;2023-02-17T06:42:20;100727.70;;;4.94;82.75
60920;BME280;59039;52.108;19.942;2023-02-17T06:44:54;100725.22;;;4.96;83.01
60920;BME280;59039;52.108;19.942;2023-02-17T06:47:34;100729.00;;;4.98;83.10
60920;BME280;59039;52.108;19.942;2023-02-17T06:55:45;100723.23;;;5.01;83.41
60920;BME280;59039;52.108;19.942;2023-02-17T07:03:27;100721.84;;;5.06;83.13
60920;BME280;59039;52.108;19.942;2023-02-17T07:06:17;100717.61;;;5.07;83.03
60920;BME280;59039;52.108;19.942;2023-02-17T07:08:48;100720.13;;;5.10;83.23
60920;BME280;59039;52.108;19.942;2023-02-17T07:11:20;100724.16;;;5.11;83.53
60920;BME280;59039;52.108;19.942;2023-02-17T07:16:34;100719.71;;;5.13;83.03
60920;BME280;59039;52.108;19.942;2023-02-17T07:19:05;100712.73;;;5.15;82.83
60920;BME280;59039;52.108;19.942;2023-02-17T07:21:40;100713.98;;;5.17;83.24
60920;BME280;59039;52.108;19.942;2023-02-17T07:29:46;100713.56;;;5.23;82.87
60920;BME280;59039;52.108;19.942;2023-02-17T07:32:32;100714.10;;;5.25;83.17
60920;BME280;59039;52.108;19.942;2023-02-17T07:35:18;100712.92;;;5.27;83.25
60920;BME280;59039;52.108;19.942;2023-02-17T07:38:06;100710.64;;;5.29;83.40
60920;BME280;59039;52.108;19.942;2023-02-17T07:40:45;100710.01;;;5.30;83.42
60920;BME280;59039;52.108;19.942;2023-02-17T07:43:13;100713.25;;;5.32;83.62
60920;BME280;59039;52.108;19.942;2023-02-17T07:45:53;100712.52;;;5.35;83.82
60920;BME280;59039;52.108;19.942;2023-02-17T07:53:59;100710.84;;;5.40;83.58
60920;BME280;59039;52.108;19.942;2023-02-17T07:57:06;100711.03;;;5.42;83.62
60920;BME280;59039;52.108;19.942;2023-02-17T08:00:02;100702.42;;;5.45;83.78
60920;BME280;59039;52.108;19.942;2023-02-17T08:02:32;100699.20;;;5.47;83.52
60920;BME280;59039;52.108;19.942;2023-02-17T08:05:18;100693.80;;;5.50;83.80
60920;BME280;59039;52.108;19.942;2023-02-17T08:07:48;100692.72;;;5.52;83.49
60920;BME280;59039;52.108;19.942;2023-02-17T08:10:14;100691.91;;;5.55;83.64
60920;BME280;59039;52.108;19.942;2023-02-17T08:12:53;100690.81;;;5.58;84.04
60920;BME280;59039;52.108;19.942;2023-02-17T08:18:00;100691.45;;;5.64;83.53
60920;BME280;59039;52.108;19.942;2023-02-17T08:20:29;100689.38;;;5.68;83.98
60920;BME280;59039;52.108;19.942;2023-02-17T08:23:06;100685.95;;;5.71;84.03
60920;BME280;59039;52.108;19.942;2023-02-17T08:28:10;100685.09;;;5.74;83.82
60920;BME280;59039;52.108;19.942;2023-02-17T08:30:56;100683.17;;;5.76;83.88
60920;BME280;59039;52.108;19.942;2023-02-17T08:33:26;100680.89;;;5.78;83.73
60920;BME280;59039;52.108;19.942;2023-02-17T08:35:55;100678.05;;;5.79;83.78
60920;BME280;59039;52.108;19.942;2023-02-17T08:38:23;100680.21;;;5.82;83.95
60920;BME280;59039;52.108;19.942;2023-02-17T08:40:51;100680.70;;;5.84;84.15
60920;BME280;59039;52.108;19.942;2023-02-17T08:43:19;100683.23;;;5.87;84.35
60920;BME280;59039;52.108;19.942;2023-02-17T08:45:50;100680.19;;;5.89;84.39
60920;BME280;59039;52.108;19.942;2023-02-17T08:48:15;100680.92;;;5.91;84.42
60920;BME280;59039;52.108;19.942;2023-02-17T08:50:45;100680.82;;;5.93;84.81
60920;BME280;59039;52.108;19.942;2023-02-17T08:53:14;100678.92;;;5.94;84.72
60920;BME280;59039;52.108;19.942;2023-02-17T08:55:39;100678.81;;;5.96;85.20
60920;BME280;59039;52.108;19.942;2023-02-17T08:58:14;100677.73;;;5.96;85.39
60920;BME280;59039;52.108;19.942;2023-02-17T09:01:02;100676.88;;;5.95;85.11
60920;BME280;59039;52.108;19.942;2023-02-17T09:03:32;100678.87;;;5.97;85.36
60920;BME280;59039;52.108;19.942;2023-02-17T09:06:03;100677.17;;;5.98;85.43
60920;BME280;59039;52.108;19.942;2023-02-17T09:08:29;100679.42;;;5.99;85.45
60920;BME280;59039;52.108;19.942;2023-02-17T09:11:18;100677.86;;;6.01;85.55
60920;BME280;59039;52.108;19.942;2023-02-17T09:13:44;100673.94;;;6.03;85.60
60920;BME280;59039;52.108;19.942;2023-02-17T09:16:12;100671.79;;;6.05;85.67
60920;BME280;59039;52.108;19.942;2023-02-17T09:18:40;100666.77;;;6.07;85.86
60920;BME280;59039;52.108;19.942;2023-02-17T09:21:08;100665.59;;;6.11;85.98
60920;BME280;59039;52.108;19.942;2023-02-17T09:23:47;100659.54;;;6.15;86.07
60920;BME280;59039;52.108;19.942;2023-02-17T09:26:16;100653.37;;;6.18;86.13
60920;BME280;59039;52.108;19.942;2023-02-17T09:29:04;100646.04;;;6.21;86.34
60920;BME280;59039;52.108;19.942;2023-02-17T09:31:34;100640.38;;;6.25;86.07
60920;BME280;59039;52.108;19.942;2023-02-17T09:34:03;100631.23;;;6.29;86.33
60920;BME280;59039;52.108;19.942;2023-02-17T09:37:32;100626.48;;;6.32;86.26
60920;BME280;59039;52.108;19.942;2023-02-17T09:39:53;100624.61;;;6.35;85.95
60920;BME280;59039;52.108;19.942;2023-02-17T09:42:28;100619.95;;;6.39;86.09
60920;BME280;59039;52.108;19.942;2023-02-17T09:45:00;100619.68;;;6.43;86.00
60920;BME280;59039;52.108;19.942;2023-02-17T09:50:57;100614.51;;;6.49;85.68
60920;BME280;59039;52.108;19.942;2023-02-17T09:53:39;100608.86;;;6.52;85.40
60920;BME280;59039;52.108;19.942;2023-02-17T09:56:09;100603.10;;;6.54;85.87
60920;BME280;59039;52.108;19.942;2023-02-17T10:01:52;100599.18;;;6.58;85.73
60920;BME280;59039;52.108;19.942;2023-02-17T10:04:22;100598.20;;;6.62;85.94
60920;BME280;59039;52.108;19.942;2023-02-17T10:09:51;100594.74;;;6.66;86.11
60920;BME280;59039;52.108;19.942;2023-02-17T10:12:44;100590.78;;;6.68;86.10
60920;BME280;59039;52.108;19.942;2023-02-17T10:20:45;100577.10;;;6.75;85.88
60920;BME280;59039;52.108;19.942;2023-02-17T10:23:42;100571.27;;;6.78;86.01
60920;BME280;59039;52.108;19.942;2023-02-17T10:32:24;100547.67;;;6.87;86.39
60920;BME280;59039;52.108;19.942;2023-02-17T10:35:15;100544.41;;;6.89;86.28
60920;BME280;59039;52.108;19.942;2023-02-17T10:37:48;100540.98;;;6.91;86.27
60920;BME280;59039;52.108;19.942;2023-02-17T10:43:20;100535.45;;;6.95;86.32
60920;BME280;59039;52.108;19.942;2023-02-17T10:45:52;100529.52;;;6.97;86.67
60920;BME280;59039;52.108;19.942;2023-02-17T10:48:44;100523.91;;;7.00;86.72
60920;BME280;59039;52.108;19.942;2023-02-17T10:52:01;100518.80;;;7.00;86.63
60920;BME280;59039;52.108;19.942;2023-02-17T10:54:21;100508.15;;;7.03;86.61
60920;BME280;59039;52.108;19.942;2023-02-17T10:57:31;100504.20;;;7.05;86.62
60920;BME280;59039;52.108;19.942;2023-02-17T11:00:07;100503.50;;;7.07;86.58
60920;BME280;59039;52.108;19.942;2023-02-17T11:05:40;100491.08;;;7.09;86.53
60920;BME280;59039;52.108;19.942;2023-02-17T11:09:16;100484.70;;;7.09;86.65
60920;BME280;59039;52.108;19.942;2023-02-17T11:11:46;100471.05;;;7.09;86.69
60920;BME280;59039;52.108;19.942;2023-02-17T11:14:33;100464.48;;;7.10;86.53
60920;BME280;59039;52.108;19.942;2023-02-17T11:17:29;100456.03;;;7.12;86.69
60920;BME280;59039;52.108;19.942;2023-02-17T11:20:03;100453.46;;;7.13;86.49
60920;BME280;59039;52.108;19.942;2023-02-17T11:22:40;100448.61;;;7.15;86.65
60920;BME280;59039;52.108;19.942;2023-02-17T11:25:31;100446.46;;;7.16;86.72
60920;BME280;59039;52.108;19.942;2023-02-17T11:28:10;100442.39;;;7.18;86.94
60920;BME280;59039;52.108;19.942;2023-02-17T11:30:55;100436.73;;;7.19;86.90
60920;BME280;59039;52.108;19.942;2023-02-17T11:33:53;100432.88;;;7.19;86.64
60920;BME280;59039;52.108;19.942;2023-02-17T11:39:36;100424.80;;;7.21;87.02
60920;BME280;59039;52.108;19.942;2023-02-17T11:42:03;100415.79;;;7.21;86.72
60920;BME280;59039;52.108;19.942;2023-02-17T11:45:00;100410.97;;;7.22;86.63
60920;BME280;59039;52.108;19.942;2023-02-17T11:51:09;100388.42;;;7.24;86.80
60920;BME280;59039;52.108;19.942;2023-02-17T11:54:00;100386.48;;;7.26;86.81
60920;BME280;59039;52.108;19.942;2023-02-17T12:03:08;100359.98;;;7.30;86.96
60920;BME280;59039;52.108;19.942;2023-02-17T12:14:27;100327.88;;;7.31;87.19
60920;BME280;59039;52.108;19.942;2023-02-17T12:17:17;100321.59;;;7.30;87.20
60920;BME280;59039;52.108;19.942;2023-02-17T12:20:19;100310.27;;;7.30;87.31
60920;BME280;59039;52.108;19.942;2023-02-17T12:23:00;100309.63;;;7.29;87.32
60920;BME280;59039;52.108;19.942;2023-02-17T12:29:05;100302.30;;;7.28;87.31
60920;BME280;59039;52.108;19.942;2023-02-17T12:35:36;100290.91;;;7.25;87.21
60920;BME280;59039;52.108;19.942;2023-02-17T12:37:52;100286.59;;;7.25;87.30
60920;BME280;59039;52.108;19.942;2023-02-17T12:40:44;100279.25;;;7.24;87.43
60920;BME280;59039;52.108;19.942;2023-02-17T12:46:01;100256.75;;;7.24;87.61
60920;BME280;59039;52.108;19.942;2023-02-17T12:51:32;100246.39;;;7.27;87.67
60920;BME280;59039;52.108;19.942;2023-02-17T12:59:42;100242.48;;;7.32;87.95
60920;BME280;59039;52.108;19.942;2023-02-17T13:02:15;100234.95;;;7.34;87.93
60920;BME280;59039;52.108;19.942;2023-02-17T13:04:48;100224.59;;;7.35;87.83
60920;BME280;59039;52.108;19.942;2023-02-17T13:07:41;100220.77;;;7.38;88.03
60920;BME280;59039;52.108;19.942;2023-02-17T13:10:31;100215.82;;;7.38;88.03
60920;BME280;59039;52.108;19.942;2023-02-17T13:13:32;100213.98;;;7.41;87.98
60920;BME280;59039;52.108;19.942;2023-02-17T13:16:09;100213.14;;;7.42;87.86
60920;BME280;59039;52.108;19.942;2023-02-17T13:19:05;100213.17;;;7.44;88.00
60920;BME280;59039;52.108;19.942;2023-02-17T13:21:54;100209.73;;;7.46;87.92
60920;BME280;59039;52.108;19.942;2023-02-17T13:24:56;100207.48;;;7.47;87.99
60920;BME280;59039;52.108;19.942;2023-02-17T13:30:38;100186.38;;;7.50;88.00
60920;BME280;59039;52.108;19.942;2023-02-17T13:33:29;100180.36;;;7.51;88.10
60920;BME280;59039;52.108;19.942;2023-02-17T13:36:10;100179.63;;;7.52;87.91
60920;BME280;59039;52.108;19.942;2023-02-17T13:38:50;100169.86;;;7.54;88.05
60920;BME280;59039;52.108;19.942;2023-02-17T13:42:01;100160.11;;;7.54;88.10
60920;BME280;59039;52.108;19.942;2023-02-17T13:44:27;100160.23;;;7.57;88.03
60920;BME280;59039;52.108;19.942;2023-02-17T13:47:24;100156.63;;;7.59;87.77
60920;BME280;59039;52.108;19.942;2023-02-17T13:56:32;100150.30;;;7.63;88.10
60920;BME280;59039;52.108;19.942;2023-02-17T13:59:37;100140.20;;;7.65;87.94
60920;BME280;59039;52.108;19.942;2023-02-17T14:02:23;100135.31;;;7.66;88.06
60920;BME280;59039;52.108;19.942;2023-02-17T14:04:49;100130.31;;;7.68;87.98
60920;BME280;59039;52.108;19.942;2023-02-17T14:07:20;100124.98;;;7.69;88.14
60920;BME280;59039;52.108;19.942;2023-02-17T14:10:36;100121.38;;;7.71;88.29
60920;BME280;59039;52.108;19.942;2023-02-17T14:12:37;100112.83;;;7.72;88.06
60920;BME280;59039;52.108;19.942;2023-02-17T14:15:14;100106.11;;;7.72;87.90
60920;BME280;59039;52.108;19.942;2023-02-17T14:17:50;100096.24;;;7.72;87.83
60920;BME280;59039;52.108;19.942;2023-02-17T14:20:47;100087.54;;;7.72;88.05
60920;BME280;59039;52.108;19.942;2023-02-17T14:24:04;100084.63;;;7.73;88.03
60920;BME280;59039;52.108;19.942;2023-02-17T14:26:42;100080.61;;;7.73;88.01
60920;BME280;59039;52.108;19.942;2023-02-17T14:29:25;100074.41;;;7.74;88.31
60920;BME280;59039;52.108;19.942;2023-02-17T14:32:33;100069.91;;;7.73;88.32
60920;BME280;59039;52.108;19.942;2023-02-17T14:35:31;100060.34;;;7.74;88.44
60920;BME280;59039;52.108;19.942;2023-02-17T14:38:18;100057.79;;;7.72;88.39
60920;BME280;59039;52.108;19.942;2023-02-17T14:40:53;100045.15;;;7.72;88.60
60920;BME280;59039;52.108;19.942;2023-02-17T14:43:22;100048.02;;;7.70;88.64
60920;BME280;59039;52.108;19.942;2023-02-17T14:45:58;100040.31;;;7.68;88.70
60920;BME280;59039;52.108;19.942;2023-02-17T14:48:39;100038.66;;;7.69;88.78
60920;BME280;59039;52.108;19.942;2023-02-17T14:51:46;100037.27;;;7.68;88.73
60920;BME280;59039;52.108;19.942;2023-02-17T14:54:18;100030.28;;;7.67;88.75
60920;BME280;59039;52.108;19.942;2023-02-17T14:57:15;100028.45;;;7.66;88.86
60920;BME280;59039;52.108;19.942;2023-02-17T14:59:46;100022.93;;;7.65;88.88
60920;BME280;59039;52.108;19.942;2023-02-17T15:02:31;100016.72;;;7.64;89.01
60920;BME280;59039;52.108;19.942;2023-02-17T15:05:09;100010.80;;;7.62;89.16
60920;BME280;59039;52.108;19.942;2023-02-17T15:07:42;99998.48;;;7.59;89.24
60920;BME280;59039;52.108;19.942;2023-02-17T15:10:21;99994.82;;;7.58;89.19
60920;BME280;59039;52.108;19.942;2023-02-17T15:12:51;99990.27;;;7.56;89.32
60920;BME280;59039;52.108;19.942;2023-02-17T15:15:48;99981.41;;;7.55;89.19
60920;BME280;59039;52.108;19.942;2023-02-17T15:18:28;99969.48;;;7.55;89.29
60920;BME280;59039;52.108;19.942;2023-02-17T15:20:56;99963.85;;;7.53;89.27
60920;BME280;59039;52.108;19.942;2023-02-17T15:23:27;99954.92;;;7.52;89.27
60920;BME280;59039;52.108;19.942;2023-02-17T15:26:14;99945.25;;;7.52;89.22
60920;BME280;59039;52.108;19.942;2023-02-17T15:28:43;99938.15;;;7.52;89.28
60920;BME280;59039;52.108;19.942;2023-02-17T15:31:12;99935.38;;;7.53;89.25
60920;BME280;59039;52.108;19.942;2023-02-17T15:34:11;99930.99;;;7.53;89.44
60920;BME280;59039;52.108;19.942;2023-02-17T15:36:45;99923.01;;;7.52;89.39
60920;BME280;59039;52.108;19.942;2023-02-17T15:39:36;99921.96;;;7.52;89.36
60920;BME280;59039;52.108;19.942;2023-02-17T15:42:05;99915.55;;;7.51;89.46
60920;BME280;59039;52.108;19.942;2023-02-17T15:44:44;99907.40;;;7.50;89.54
60920;BME280;59039;52.108;19.942;2023-02-17T15:50:41;99894.67;;;7.49;89.62
60920;BME280;59039;52.108;19.942;2023-02-17T15:52:45;99891.11;;;7.49;89.71
60920;BME280;59039;52.108;19.942;2023-02-17T15:55:20;99884.80;;;7.49;89.66
60920;BME280;59039;52.108;19.942;2023-02-17T15:58:00;99877.95;;;7.48;89.73
60920;BME280;59039;52.108;19.942;2023-02-17T16:00:43;99872.01;;;7.48;89.75
60920;BME280;59039;52.108;19.942;2023-02-17T16:03:13;99864.24;;;7.48;89.78
60920;BME280;59039;52.108;19.942;2023-02-17T16:05:44;99858.52;;;7.48;89.81
60920;BME280;59039;52.108;19.942;2023-02-17T16:08:17;99863.99;;;7.47;89.87
60920;BME280;59039;52.108;19.942;2023-02-17T16:10:48;99862.51;;;7.48;89.90
60920;BME280;59039;52.108;19.942;2023-02-17T16:13:18;99864.11;;;7.48;89.98
60920;BME280;59039;52.108;19.942;2023-02-17T16:15:44;99872.77;;;7.48;90.01
60920;BME280;59039;52.108;19.942;2023-02-17T16:18:39;99869.05;;;7.47;90.06
60920;BME280;59039;52.108;19.942;2023-02-17T16:21:09;99863.59;;;7.48;90.10
60920;BME280;59039;52.108;19.942;2023-02-17T16:23:40;99860.18;;;7.48;90.20
60920;BME280;59039;52.108;19.942;2023-02-17T16:26:29;99849.94;;;7.47;90.30
60920;BME280;59039;52.108;19.942;2023-02-17T16:29:18;99848.77;;;7.47;90.36
60920;BME280;59039;52.108;19.942;2023-02-17T16:31:47;99842.86;;;7.46;90.43
60920;BME280;59039;52.108;19.942;2023-02-17T16:34:18;99835.32;;;7.46;90.46
60920;BME280;59039;52.108;19.942;2023-02-17T16:36:43;99838.63;;;7.45;90.49
60920;BME280;59039;52.108;19.942;2023-02-17T16:39:17;99839.53;;;7.45;90.62